sensor_id;sensor_type;location;lat;lon;timestamp;P1;durP1;ratioP1;P2;durP2;ratioP2
75285;SDS011;63879;46.064;14.532;2023-02-17T07:00:22;61.67;;;29.55;;
75285;SDS011;63879;46.064;14.532;2023-02-17T07:02:47;64.15;;;28.05;;
75285;SDS011;63879;46.064;14.532;2023-02-17T07:05:13;69.68;;;29.27;;
75285;SDS011;63879;46.064;14.532;2023-02-17T07:07:38;66.00;;;28.90;;
75285;SDS011;63879;46.064;14.532;2023-02-17T07:10:04;62.87;;;27.70;;
75285;SDS011;63879;46.064;14.532;2023-02-17T07:12:30;65.70;;;28.60;;
75285;SDS011;63879;46.064;14.532;2023-02-17T07:14:55;51.03;;;24.73;;
75285;SDS011;63879;46.064;14.532;2023-02-17T07:17:21;64.38;;;28.10;;
75285;SDS011;63879;46.064;14.532;2023-02-17T07:19:46;57.40;;;26.92;;
75285;SDS011;63879;46.064;14.532;2023-02-17T07:22:11;61.60;;;27.07;;
75285;SDS011;63879;46.064;14.532;2023-02-17T07:24:37;57.73;;;26.20;;
75285;SDS011;63879;46.064;14.532;2023-02-17T07:27:03;67.18;;;35.63;;
75285;SDS011;63879;46.064;14.532;2023-02-17T07:29:29;64.03;;;32.53;;
75285;SDS011;63879;46.064;14.532;2023-02-17T07:31:55;59.28;;;27.13;;
75285;SDS011;63879;46.064;14.532;2023-02-17T07:34:20;62.00;;;29.33;;
75285;SDS011;63879;46.064;14.532;2023-02-17T07:36:46;57.35;;;27.90;;
75285;SDS011;63879;46.064;14.532;2023-02-17T07:39:11;59.95;;;28.80;;
75285;SDS011;63879;46.064;14.532;2023-02-17T07:41:36;62.35;;;27.88;;
75285;SDS011;63879;46.064;14.532;2023-02-17T07:44:02;62.00;;;27.70;;
75285;SDS011;63879;46.064;14.532;2023-02-17T07:46:27;72.85;;;30.30;;
75285;SDS011;63879;46.064;14.532;2023-02-17T07:48:52;66.60;;;28.37;;
75285;SDS011;63879;46.064;14.532;2023-02-17T07:51:20;59.05;;;25.95;;
75285;SDS011;63879;46.064;14.532;2023-02-17T07:53:47;60.05;;;27.25;;
75285;SDS011;63879;46.064;14.532;2023-02-17T07:56:14;66.78;;;27.30;;
75285;SDS011;63879;46.064;14.532;2023-02-17T07:58:40;55.67;;;24.42;;
75285;SDS011;63879;46.064;14.532;2023-02-17T08:01:07;51.22;;;24.75;;
75285;SDS011;63879;46.064;14.532;2023-02-17T08:03:37;52.65;;;24.88;;
75285;SDS011;63879;46.064;14.532;2023-02-17T08:06:02;60.35;;;25.20;;
75285;SDS011;63879;46.064;14.532;2023-02-17T08:08:28;59.63;;;25.20;;
75285;SDS011;63879;46.064;14.532;2023-02-17T08:11:13;62.22;;;26.80;;
75285;SDS011;63879;46.064;14.532;2023-02-17T08:13:58;54.50;;;24.60;;
75285;SDS011;63879;46.064;14.532;2023-02-17T08:16:23;67.43;;;26.73;;
75285;SDS011;63879;46.064;14.532;2023-02-17T08:21:24;54.92;;;25.80;;
75285;SDS011;63879;46.064;14.532;2023-02-17T08:23:50;58.40;;;28.45;;
75285;SDS011;63879;46.064;14.532;2023-02-17T08:26:16;46.63;;;24.27;;
75285;SDS011;63879;46.064;14.532;2023-02-17T08:28:42;52.50;;;25.77;;
75285;SDS011;63879;46.064;14.532;2023-02-17T08:31:41;50.88;;;23.40;;
75285;SDS011;63879;46.064;14.532;2023-02-17T08:34:01;61.03;;;27.15;;
75285;SDS011;63879;46.064;14.532;2023-02-17T08:36:28;56.15;;;27.92;;
75285;SDS011;63879;46.064;14.532;2023-02-17T08:38:54;54.10;;;25.45;;
75285;SDS011;63879;46.064;14.532;2023-02-17T08:41:21;53.13;;;24.13;;
75285;SDS011;63879;46.064;14.532;2023-02-17T08:43:54;49.40;;;23.90;;
75285;SDS011;63879;46.064;14.532;2023-02-17T08:46:20;46.42;;;23.50;;
75285;SDS011;63879;46.064;14.532;2023-02-17T08:48:45;50.50;;;24.40;;
75285;SDS011;63879;46.064;14.532;2023-02-17T08:51:12;47.92;;;23.38;;
75285;SDS011;63879;46.064;14.532;2023-02-17T08:53:38;50.92;;;23.88;;
75285;SDS011;63879;46.064;14.532;2023-02-17T08:56:04;50.72;;;25.33;;
75285;SDS011;63879;46.064;14.532;2023-02-17T08:58:30;53.70;;;25.95;;
75285;SDS011;63879;46.064;14.532;2023-02-17T09:00:55;51.67;;;25.65;;
75285;SDS011;63879;46.064;14.532;2023-02-17T09:03:21;51.27;;;25.43;;
75285;SDS011;63879;46.064;14.532;2023-02-17T09:05:46;51.57;;;25.00;;
75285;SDS011;63879;46.064;14.532;2023-02-17T09:08:11;54.97;;;27.27;;
75285;SDS011;63879;46.064;14.532;2023-02-17T09:10:37;52.17;;;26.33;;
75285;SDS011;63879;46.064;14.532;2023-02-17T09:13:02;54.45;;;25.75;;
75285;SDS011;63879;46.064;14.532;2023-02-17T09:15:28;53.25;;;25.73;;
75285;SDS011;63879;46.064;14.532;2023-02-17T09:17:54;47.67;;;23.65;;
75285;SDS011;63879;46.064;14.532;2023-02-17T09:20:19;45.30;;;23.93;;
75285;SDS011;63879;46.064;14.532;2023-02-17T09:22:44;51.42;;;25.92;;
75285;SDS011;63879;46.064;14.532;2023-02-17T09:25:10;50.07;;;25.70;;
75285;SDS011;63879;46.064;14.532;2023-02-17T09:27:35;49.55;;;23.58;;
75285;SDS011;63879;46.064;14.532;2023-02-17T09:30:00;53.45;;;26.08;;
75285;SDS011;63879;46.064;14.532;2023-02-17T09:32:26;53.00;;;25.08;;
75285;SDS011;63879;46.064;14.532;2023-02-17T09:34:51;65.67;;;27.43;;
75285;SDS011;63879;46.064;14.532;2023-02-17T09:37:17;64.00;;;27.40;;
75285;SDS011;63879;46.064;14.532;2023-02-17T09:39:43;71.43;;;29.35;;
75285;SDS011;63879;46.064;14.532;2023-02-17T09:42:17;49.60;;;24.70;;
75285;SDS011;63879;46.064;14.532;2023-02-17T09:44:44;52.83;;;28.63;;
75285;SDS011;63879;46.064;14.532;2023-02-17T09:47:15;48.03;;;23.75;;
75285;SDS011;63879;46.064;14.532;2023-02-17T09:49:44;61.97;;;23.65;;
75285;SDS011;63879;46.064;14.532;2023-02-17T09:52:17;39.78;;;21.60;;
75285;SDS011;63879;46.064;14.532;2023-02-17T09:57:36;41.95;;;21.15;;
75285;SDS011;63879;46.064;14.532;2023-02-17T10:00:14;45.22;;;20.90;;
75285;SDS011;63879;46.064;14.532;2023-02-17T10:02:44;43.97;;;20.13;;
75285;SDS011;63879;46.064;14.532;2023-02-17T10:05:29;42.65;;;20.25;;
75285;SDS011;63879;46.064;14.532;2023-02-17T10:08:01;41.65;;;18.27;;
75285;SDS011;63879;46.064;14.532;2023-02-17T10:10:43;48.40;;;21.10;;
75285;SDS011;63879;46.064;14.532;2023-02-17T10:13:11;45.65;;;19.95;;
75285;SDS011;63879;46.064;14.532;2023-02-17T10:15:38;46.33;;;24.90;;
75285;SDS011;63879;46.064;14.532;2023-02-17T10:18:13;70.90;;;26.35;;
75285;SDS011;63879;46.064;14.532;2023-02-17T10:20:48;40.80;;;21.00;;
75285;SDS011;63879;46.064;14.532;2023-02-17T10:23:21;44.80;;;21.40;;
75285;SDS011;63879;46.064;14.532;2023-02-17T10:28:36;41.88;;;20.23;;
75285;SDS011;63879;46.064;14.532;2023-02-17T10:37:29;37.45;;;21.27;;
75285;SDS011;63879;46.064;14.532;2023-02-17T10:39:57;50.85;;;23.05;;
75285;SDS011;63879;46.064;14.532;2023-02-17T10:42:27;34.75;;;19.58;;
75285;SDS011;63879;46.064;14.532;2023-02-17T10:45:37;43.05;;;20.02;;
75285;SDS011;63879;46.064;14.532;2023-02-17T10:47:45;35.95;;;19.35;;
75285;SDS011;63879;46.064;14.532;2023-02-17T10:50:18;34.63;;;18.63;;
75285;SDS011;63879;46.064;14.532;2023-02-17T10:52:45;37.92;;;19.63;;
75285;SDS011;63879;46.064;14.532;2023-02-17T10:55:22;32.13;;;18.98;;
75285;SDS011;63879;46.064;14.532;2023-02-17T10:58:13;42.80;;;19.67;;
75285;SDS011;63879;46.064;14.532;2023-02-17T11:00:43;38.60;;;20.35;;
75285;SDS011;63879;46.064;14.532;2023-02-17T11:03:22;39.17;;;18.75;;
75285;SDS011;63879;46.064;14.532;2023-02-17T11:05:56;36.53;;;20.13;;
75285;SDS011;63879;46.064;14.532;2023-02-17T11:08:30;41.30;;;22.58;;
75285;SDS011;63879;46.064;14.532;2023-02-17T11:11:01;37.17;;;19.38;;
75285;SDS011;63879;46.064;14.532;2023-02-17T11:16:34;55.50;;;21.85;;
75285;SDS011;63879;46.064;14.532;2023-02-17T11:19:19;85.90;;;26.35;;
75285;SDS011;63879;46.064;14.532;2023-02-17T11:21:55;70.07;;;24.17;;
75285;SDS011;63879;46.064;14.532;2023-02-17T11:24:22;68.60;;;22.08;;
75285;SDS011;63879;46.064;14.532;2023-02-17T11:29:48;38.20;;;15.50;;
75285;SDS011;63879;46.064;14.532;2023-02-17T11:32:13;30.47;;;13.87;;
75285;SDS011;63879;46.064;14.532;2023-02-17T11:34:40;25.77;;;12.45;;
75285;SDS011;63879;46.064;14.532;2023-02-17T11:44:55;24.65;;;12.80;;
75285;SDS011;63879;46.064;14.532;2023-02-17T11:47:42;25.33;;;13.98;;
75285;SDS011;63879;46.064;14.532;2023-02-17T11:51:03;22.67;;;12.70;;
75285;SDS011;63879;46.064;14.532;2023-02-17T12:23:21;22.25;;;11.55;;
75285;SDS011;63879;46.064;14.532;2023-02-17T12:25:56;21.17;;;11.07;;
75285;SDS011;63879;46.064;14.532;2023-02-17T12:28:33;20.88;;;11.40;;
75285;SDS011;63879;46.064;14.532;2023-02-17T12:31:19;20.75;;;10.93;;
75285;SDS011;63879;46.064;14.532;2023-02-17T12:36:28;19.77;;;12.15;;
75285;SDS011;63879;46.064;14.532;2023-02-17T12:39:04;22.70;;;12.30;;
75285;SDS011;63879;46.064;14.532;2023-02-17T12:41:39;22.42;;;12.88;;
75285;SDS011;63879;46.064;14.532;2023-02-17T12:44:17;21.50;;;11.27;;
75285;SDS011;63879;46.064;14.532;2023-02-17T12:46:46;25.88;;;13.57;;
75285;SDS011;63879;46.064;14.532;2023-02-17T12:54:39;24.48;;;15.13;;
75285;SDS011;63879;46.064;14.532;2023-02-17T12:57:11;24.23;;;13.43;;
75285;SDS011;63879;46.064;14.532;2023-02-17T12:59:39;24.83;;;13.65;;
75285;SDS011;63879;46.064;14.532;2023-02-17T13:04:36;23.65;;;12.43;;
75285;SDS011;63879;46.064;14.532;2023-02-17T13:09:57;23.15;;;13.45;;
75285;SDS011;63879;46.064;14.532;2023-02-17T13:14:59;27.27;;;15.47;;
75285;SDS011;63879;46.064;14.532;2023-02-17T13:17:30;24.77;;;13.57;;
75285;SDS011;63879;46.064;14.532;2023-02-17T13:20:06;25.30;;;15.38;;
75285;SDS011;63879;46.064;14.532;2023-02-17T13:22:36;27.50;;;14.82;;
75285;SDS011;63879;46.064;14.532;2023-02-17T13:25:03;23.98;;;13.60;;
75285;SDS011;63879;46.064;14.532;2023-02-17T13:27:36;26.98;;;16.95;;
75285;SDS011;63879;46.064;14.532;2023-02-17T13:30:05;26.33;;;14.60;;
75285;SDS011;63879;46.064;14.532;2023-02-17T13:32:35;31.88;;;15.63;;
75285;SDS011;63879;46.064;14.532;2023-02-17T13:39:56;30.27;;;17.00;;
75285;SDS011;63879;46.064;14.532;2023-02-17T13:42:36;26.00;;;15.38;;
75285;SDS011;63879;46.064;14.532;2023-02-17T13:47:50;34.22;;;17.27;;
75285;SDS011;63879;46.064;14.532;2023-02-17T13:50:34;33.35;;;16.10;;
75285;SDS011;63879;46.064;14.532;2023-02-17T13:53:02;33.13;;;17.08;;
75285;SDS011;63879;46.064;14.532;2023-02-17T13:55:32;36.25;;;19.08;;
75285;SDS011;63879;46.064;14.532;2023-02-17T13:57:58;38.95;;;21.23;;
75285;SDS011;63879;46.064;14.532;2023-02-17T14:00:33;35.47;;;18.27;;
75285;SDS011;63879;46.064;14.532;2023-02-17T14:03:01;33.90;;;17.80;;
75285;SDS011;63879;46.064;14.532;2023-02-17T14:05:45;39.55;;;16.98;;
75285;SDS011;63879;46.064;14.532;2023-02-17T14:08:13;34.70;;;17.38;;
75285;SDS011;63879;46.064;14.532;2023-02-17T14:10:49;38.80;;;17.73;;
75285;SDS011;63879;46.064;14.532;2023-02-17T14:13:15;37.38;;;18.83;;
75285;SDS011;63879;46.064;14.532;2023-02-17T14:15:57;36.72;;;18.92;;
75285;SDS011;63879;46.064;14.532;2023-02-17T14:21:25;35.55;;;16.05;;
75285;SDS011;63879;46.064;14.532;2023-02-17T14:23:52;35.58;;;17.88;;
75285;SDS011;63879;46.064;14.532;2023-02-17T14:26:37;43.13;;;19.73;;
75285;SDS011;63879;46.064;14.532;2023-02-17T14:29:07;38.22;;;19.27;;
75285;SDS011;63879;46.064;14.532;2023-02-17T14:34:03;37.58;;;16.05;;
75285;SDS011;63879;46.064;14.532;2023-02-17T14:36:36;32.35;;;15.07;;
75285;SDS011;63879;46.064;14.532;2023-02-17T14:39:04;35.80;;;16.90;;
75285;SDS011;63879;46.064;14.532;2023-02-17T14:41:30;37.05;;;17.35;;
75285;SDS011;63879;46.064;14.532;2023-02-17T14:43:56;43.05;;;20.75;;
75285;SDS011;63879;46.064;14.532;2023-02-17T14:46:21;40.13;;;18.92;;
75285;SDS011;63879;46.064;14.532;2023-02-17T14:48:47;36.88;;;17.25;;
75285;SDS011;63879;46.064;14.532;2023-02-17T14:51:15;35.45;;;18.27;;
75285;SDS011;63879;46.064;14.532;2023-02-17T14:56:09;37.40;;;18.35;;
75285;SDS011;63879;46.064;14.532;2023-02-17T14:58:37;40.40;;;18.15;;
75285;SDS011;63879;46.064;14.532;2023-02-17T15:01:03;44.20;;;19.60;;
75285;SDS011;63879;46.064;14.532;2023-02-17T15:03:30;39.03;;;18.25;;
75285;SDS011;63879;46.064;14.532;2023-02-17T15:05:55;38.75;;;17.95;;
75285;SDS011;63879;46.064;14.532;2023-02-17T15:08:23;41.88;;;18.95;;
75285;SDS011;63879;46.064;14.532;2023-02-17T15:10:56;35.22;;;18.90;;
75285;SDS011;63879;46.064;14.532;2023-02-17T15:13:22;38.60;;;16.77;;
75285;SDS011;63879;46.064;14.532;2023-02-17T15:15:47;40.45;;;17.88;;
75285;SDS011;63879;46.064;14.532;2023-02-17T15:18:14;41.53;;;18.88;;
75285;SDS011;63879;46.064;14.532;2023-02-17T15:23:14;35.17;;;15.10;;
75285;SDS011;63879;46.064;14.532;2023-02-17T15:25:41;34.22;;;16.08;;
75285;SDS011;63879;46.064;14.532;2023-02-17T15:28:07;40.65;;;16.58;;
75285;SDS011;63879;46.064;14.532;2023-02-17T15:30:39;39.13;;;17.00;;
75285;SDS011;63879;46.064;14.532;2023-02-17T15:33:08;42.20;;;17.73;;
75285;SDS011;63879;46.064;14.532;2023-02-17T15:35:35;39.17;;;16.23;;
75285;SDS011;63879;46.064;14.532;2023-02-17T15:38:01;41.80;;;18.92;;
75285;SDS011;63879;46.064;14.532;2023-02-17T15:40:26;38.30;;;19.13;;
75285;SDS011;63879;46.064;14.532;2023-02-17T15:42:53;35.67;;;15.30;;
75285;SDS011;63879;46.064;14.532;2023-02-17T15:45:20;42.03;;;19.20;;
75285;SDS011;63879;46.064;14.532;2023-02-17T15:47:47;34.42;;;15.57;;
75285;SDS011;63879;46.064;14.532;2023-02-17T15:50:17;37.42;;;17.05;;
75285;SDS011;63879;46.064;14.532;2023-02-17T15:52:48;41.63;;;19.70;;
75285;SDS011;63879;46.064;14.532;2023-02-17T15:55:14;40.25;;;18.38;;
75285;SDS011;63879;46.064;14.532;2023-02-17T15:57:51;40.45;;;17.77;;
75285;SDS011;63879;46.064;14.532;2023-02-17T16:02:44;45.88;;;20.30;;
75285;SDS011;63879;46.064;14.532;2023-02-17T16:05:11;41.28;;;18.88;;
75285;SDS011;63879;46.064;14.532;2023-02-17T16:07:37;39.05;;;18.40;;
75285;SDS011;63879;46.064;14.532;2023-02-17T16:10:03;42.80;;;17.87;;
75285;SDS011;63879;46.064;14.532;2023-02-17T16:12:29;42.97;;;21.20;;
75285;SDS011;63879;46.064;14.532;2023-02-17T16:14:55;48.28;;;19.40;;
75285;SDS011;63879;46.064;14.532;2023-02-17T16:17:21;37.63;;;17.73;;
75285;SDS011;63879;46.064;14.532;2023-02-17T16:19:47;44.70;;;19.15;;
75285;SDS011;63879;46.064;14.532;2023-02-17T16:22:12;41.40;;;18.27;;
75285;SDS011;63879;46.064;14.532;2023-02-17T16:24:38;42.13;;;19.13;;
75285;SDS011;63879;46.064;14.532;2023-02-17T16:27:04;40.35;;;18.33;;
75285;SDS011;63879;46.064;14.532;2023-02-17T16:29:33;44.55;;;18.10;;
75285;SDS011;63879;46.064;14.532;2023-02-17T16:31:59;40.38;;;17.17;;
75285;SDS011;63879;46.064;14.532;2023-02-17T16:34:24;43.38;;;18.45;;
75285;SDS011;63879;46.064;14.532;2023-02-17T16:36:50;45.83;;;20.08;;
75285;SDS011;63879;46.064;14.532;2023-02-17T16:39:18;42.58;;;18.60;;
75285;SDS011;63879;46.064;14.532;2023-02-17T16:41:44;43.35;;;18.08;;
75285;SDS011;63879;46.064;14.532;2023-02-17T16:44:13;46.22;;;17.33;;
75285;SDS011;63879;46.064;14.532;2023-02-17T16:46:43;44.35;;;19.17;;
75285;SDS011;63879;46.064;14.532;2023-02-17T16:49:18;43.55;;;18.63;;
75285;SDS011;63879;46.064;14.532;2023-02-17T16:51:46;39.88;;;17.45;;
75285;SDS011;63879;46.064;14.532;2023-02-17T16:54:11;42.88;;;18.42;;
75285;SDS011;63879;46.064;14.532;2023-02-17T16:56:38;38.13;;;16.63;;
75285;SDS011;63879;46.064;14.532;2023-02-17T16:59:11;43.58;;;18.45;;
75285;SDS011;63879;46.064;14.532;2023-02-17T17:01:38;46.38;;;19.45;;
75285;SDS011;63879;46.064;14.532;2023-02-17T17:04:03;45.08;;;18.80;;
75285;SDS011;63879;46.064;14.532;2023-02-17T17:06:29;44.55;;;19.15;;
75285;SDS011;63879;46.064;14.532;2023-02-17T17:08:54;45.30;;;18.73;;
75285;SDS011;63879;46.064;14.532;2023-02-17T17:11:21;42.67;;;18.63;;
75285;SDS011;63879;46.064;14.532;2023-02-17T17:13:48;44.95;;;20.98;;
75285;SDS011;63879;46.064;14.532;2023-02-17T17:16:14;39.60;;;17.33;;
75285;SDS011;63879;46.064;14.532;2023-02-17T17:18:43;37.53;;;18.23;;
75285;SDS011;63879;46.064;14.532;2023-02-17T17:21:10;46.05;;;20.05;;
75285;SDS011;63879;46.064;14.532;2023-02-17T17:23:36;40.83;;;16.65;;
75285;SDS011;63879;46.064;14.532;2023-02-17T17:26:01;39.13;;;17.77;;
75285;SDS011;63879;46.064;14.532;2023-02-17T17:28:28;44.05;;;18.92;;
75285;SDS011;63879;46.064;14.532;2023-02-17T17:30:53;41.10;;;18.30;;
75285;SDS011;63879;46.064;14.532;2023-02-17T17:33:19;42.00;;;20.02;;
75285;SDS011;63879;46.064;14.532;2023-02-17T17:35:44;44.95;;;18.73;;
75285;SDS011;63879;46.064;14.532;2023-02-17T17:38:13;42.33;;;18.87;;
75285;SDS011;63879;46.064;14.532;2023-02-17T17:40:39;41.10;;;17.65;;
75285;SDS011;63879;46.064;14.532;2023-02-17T17:43:17;42.53;;;18.67;;
75285;SDS011;63879;46.064;14.532;2023-02-17T17:45:44;39.97;;;17.73;;
75285;SDS011;63879;46.064;14.532;2023-02-17T17:48:11;40.67;;;17.90;;
75285;SDS011;63879;46.064;14.532;2023-02-17T17:50:37;39.75;;;17.30;;
75285;SDS011;63879;46.064;14.532;2023-02-17T17:53:03;41.15;;;17.20;;
75285;SDS011;63879;46.064;14.532;2023-02-17T17:55:28;39.60;;;18.57;;
75285;SDS011;63879;46.064;14.532;2023-02-17T17:57:53;42.97;;;17.85;;
75285;SDS011;63879;46.064;14.532;2023-02-17T18:00:19;44.40;;;18.33;;
75285;SDS011;63879;46.064;14.532;2023-02-17T18:02:44;39.58;;;17.27;;
75285;SDS011;63879;46.064;14.532;2023-02-17T18:05:10;39.83;;;17.70;;
75285;SDS011;63879;46.064;14.532;2023-02-17T18:07:36;39.65;;;18.35;;
75285;SDS011;63879;46.064;14.532;2023-02-17T18:10:03;43.50;;;17.80;;
75285;SDS011;63879;46.064;14.532;2023-02-17T18:12:30;43.72;;;18.92;;
75285;SDS011;63879;46.064;14.532;2023-02-17T18:14:56;40.60;;;17.35;;
75285;SDS011;63879;46.064;14.532;2023-02-17T18:17:26;42.53;;;18.25;;
75285;SDS011;63879;46.064;14.532;2023-02-17T18:19:51;37.38;;;16.52;;
75285;SDS011;63879;46.064;14.532;2023-02-17T18:22:19;41.55;;;17.08;;
75285;SDS011;63879;46.064;14.532;2023-02-17T18:24:45;41.90;;;17.73;;
75285;SDS011;63879;46.064;14.532;2023-02-17T18:27:11;46.05;;;18.33;;
75285;SDS011;63879;46.064;14.532;2023-02-17T18:29:37;41.25;;;18.25;;
75285;SDS011;63879;46.064;14.532;2023-02-17T18:32:02;44.80;;;20.95;;
75285;SDS011;63879;46.064;14.532;2023-02-17T18:34:28;43.83;;;18.92;;
75285;SDS011;63879;46.064;14.532;2023-02-17T18:36:53;44.30;;;18.07;;
75285;SDS011;63879;46.064;14.532;2023-02-17T18:39:19;44.47;;;20.93;;
75285;SDS011;63879;46.064;14.532;2023-02-17T18:41:45;41.65;;;20.67;;
75285;SDS011;63879;46.064;14.532;2023-02-17T18:44:10;42.85;;;18.23;;
75285;SDS011;63879;46.064;14.532;2023-02-17T18:46:37;40.78;;;17.52;;
75285;SDS011;63879;46.064;14.532;2023-02-17T18:49:03;42.97;;;17.65;;
75285;SDS011;63879;46.064;14.532;2023-02-17T18:51:30;44.13;;;19.17;;
75285;SDS011;63879;46.064;14.532;2023-02-17T18:53:56;42.00;;;19.48;;
75285;SDS011;63879;46.064;14.532;2023-02-17T18:56:23;46.28;;;18.35;;
75285;SDS011;63879;46.064;14.532;2023-02-17T18:58:50;44.95;;;21.05;;
75285;SDS011;63879;46.064;14.532;2023-02-17T19:03:43;40.20;;;17.60;;
75285;SDS011;63879;46.064;14.532;2023-02-17T19:06:09;42.95;;;18.00;;
75285;SDS011;63879;46.064;14.532;2023-02-17T19:08:36;42.40;;;17.35;;
75285;SDS011;63879;46.064;14.532;2023-02-17T19:11:01;41.78;;;19.10;;
75285;SDS011;63879;46.064;14.532;2023-02-17T19:13:27;40.55;;;17.63;;
75285;SDS011;63879;46.064;14.532;2023-02-17T19:15:52;45.20;;;20.90;;
75285;SDS011;63879;46.064;14.532;2023-02-17T19:18:17;44.35;;;18.20;;
75285;SDS011;63879;46.064;14.532;2023-02-17T19:20:43;43.08;;;18.52;;
75285;SDS011;63879;46.064;14.532;2023-02-17T19:23:08;42.63;;;17.90;;
75285;SDS011;63879;46.064;14.532;2023-02-17T19:25:36;44.45;;;17.95;;
75285;SDS011;63879;46.064;14.532;2023-02-17T19:28:02;43.55;;;19.38;;
75285;SDS011;63879;46.064;14.532;2023-02-17T19:30:27;41.50;;;18.20;;
75285;SDS011;63879;46.064;14.532;2023-02-17T19:32:53;43.50;;;18.63;;
75285;SDS011;63879;46.064;14.532;2023-02-17T19:35:18;43.47;;;18.13;;
75285;SDS011;63879;46.064;14.532;2023-02-17T19:37:43;42.58;;;17.00;;
75285;SDS011;63879;46.064;14.532;2023-02-17T19:40:09;43.73;;;20.13;;
75285;SDS011;63879;46.064;14.532;2023-02-17T19:42:35;43.63;;;19.50;;
75285;SDS011;63879;46.064;14.532;2023-02-17T19:45:00;38.28;;;17.13;;
75285;SDS011;63879;46.064;14.532;2023-02-17T19:47:25;41.83;;;17.05;;
75285;SDS011;63879;46.064;14.532;2023-02-17T19:49:51;44.72;;;20.17;;
75285;SDS011;63879;46.064;14.532;2023-02-17T19:52:16;41.72;;;18.27;;
75285;SDS011;63879;46.064;14.532;2023-02-17T19:54:42;41.70;;;18.25;;
75285;SDS011;63879;46.064;14.532;2023-02-17T19:57:07;42.92;;;19.20;;
75285;SDS011;63879;46.064;14.532;2023-02-17T19:59:33;44.55;;;18.63;;
75285;SDS011;63879;46.064;14.532;2023-02-17T20:01:58;45.38;;;19.67;;
75285;SDS011;63879;46.064;14.532;2023-02-17T20:04:24;44.53;;;19.67;;
75285;SDS011;63879;46.064;14.532;2023-02-17T20:06:49;49.67;;;22.40;;
75285;SDS011;63879;46.064;14.532;2023-02-17T20:09:17;59.85;;;29.88;;
75285;SDS011;63879;46.064;14.532;2023-02-17T20:11:47;46.38;;;20.45;;
75285;SDS011;63879;46.064;14.532;2023-02-17T20:14:13;48.85;;;19.27;;
75285;SDS011;63879;46.064;14.532;2023-02-17T20:16:39;46.50;;;19.42;;
75285;SDS011;63879;46.064;14.532;2023-02-17T20:19:05;46.78;;;19.65;;
75285;SDS011;63879;46.064;14.532;2023-02-17T20:21:32;49.20;;;20.45;;
75285;SDS011;63879;46.064;14.532;2023-02-17T20:23:59;44.63;;;19.55;;
75285;SDS011;63879;46.064;14.532;2023-02-17T20:26:28;47.85;;;19.13;;
75285;SDS011;63879;46.064;14.532;2023-02-17T20:28:56;43.83;;;19.70;;
75285;SDS011;63879;46.064;14.532;2023-02-17T20:31:22;46.90;;;19.88;;
75285;SDS011;63879;46.064;14.532;2023-02-17T20:33:48;45.08;;;20.33;;
75285;SDS011;63879;46.064;14.532;2023-02-17T20:36:14;45.17;;;20.20;;
75285;SDS011;63879;46.064;14.532;2023-02-17T20:38:40;46.30;;;19.85;;
75285;SDS011;63879;46.064;14.532;2023-02-17T20:41:06;45.05;;;19.80;;
75285;SDS011;63879;46.064;14.532;2023-02-17T20:43:33;48.55;;;20.67;;
75285;SDS011;63879;46.064;14.532;2023-02-17T20:46:00;46.15;;;18.95;;
75285;SDS011;63879;46.064;14.532;2023-02-17T20:48:25;49.10;;;20.45;;
75285;SDS011;63879;46.064;14.532;2023-02-17T20:50:55;50.78;;;20.88;;
75285;SDS011;63879;46.064;14.532;2023-02-17T20:53:21;44.70;;;19.70;;
75285;SDS011;63879;46.064;14.532;2023-02-17T20:55:46;48.72;;;22.10;;
75285;SDS011;63879;46.064;14.532;2023-02-17T20:58:12;46.45;;;20.25;;
75285;SDS011;63879;46.064;14.532;2023-02-17T21:00:37;46.78;;;20.30;;
75285;SDS011;63879;46.064;14.532;2023-02-17T21:03:03;48.53;;;19.67;;
75285;SDS011;63879;46.064;14.532;2023-02-17T21:05:29;47.45;;;20.52;;
75285;SDS011;63879;46.064;14.532;2023-02-17T21:07:55;50.10;;;22.50;;
75285;SDS011;63879;46.064;14.532;2023-02-17T21:10:23;47.75;;;19.80;;
75285;SDS011;63879;46.064;14.532;2023-02-17T21:12:50;51.13;;;24.42;;
75285;SDS011;63879;46.064;14.532;2023-02-17T21:15:15;49.63;;;21.07;;
75285;SDS011;63879;46.064;14.532;2023-02-17T21:17:41;53.78;;;21.20;;
75285;SDS011;63879;46.064;14.532;2023-02-17T21:20:07;46.72;;;20.30;;
75285;SDS011;63879;46.064;14.532;2023-02-17T21:22:34;56.10;;;20.50;;
75285;SDS011;63879;46.064;14.532;2023-02-17T21:25:00;47.15;;;20.83;;
75285;SDS011;63879;46.064;14.532;2023-02-17T21:27:25;51.75;;;21.30;;
75285;SDS011;63879;46.064;14.532;2023-02-17T21:29:51;52.38;;;21.17;;
75285;SDS011;63879;46.064;14.532;2023-02-17T21:32:16;52.78;;;20.98;;
75285;SDS011;63879;46.064;14.532;2023-02-17T21:34:41;49.27;;;21.53;;
75285;SDS011;63879;46.064;14.532;2023-02-17T21:37:07;49.23;;;20.10;;
75285;SDS011;63879;46.064;14.532;2023-02-17T21:39:33;43.03;;;19.50;;
75285;SDS011;63879;46.064;14.532;2023-02-17T21:41:58;51.28;;;21.23;;
75285;SDS011;63879;46.064;14.532;2023-02-17T21:44:24;52.10;;;21.90;;
75285;SDS011;63879;46.064;14.532;2023-02-17T21:47:08;49.13;;;21.52;;
75285;SDS011;63879;46.064;14.532;2023-02-17T21:49:33;48.35;;;20.33;;
75285;SDS011;63879;46.064;14.532;2023-02-17T21:51:59;52.78;;;21.92;;
75285;SDS011;63879;46.064;14.532;2023-02-17T21:54:24;52.70;;;22.15;;
75285;SDS011;63879;46.064;14.532;2023-02-17T21:56:50;55.83;;;22.25;;
75285;SDS011;63879;46.064;14.532;2023-02-17T21:59:15;54.97;;;21.10;;
